createdAt,value
2023-12-18T00:00:42.861Z,41.67
2023-12-18T00:03:51.210Z,44.93
2023-12-18T00:06:57.798Z,43.20
2023-12-18T00:10:04.512Z,30.07
2023-12-18T00:13:11.303Z,34.80
2023-12-18T00:16:17.831Z,23.90
2023-12-18T00:19:26.050Z,28.30
2023-12-18T00:22:32.969Z,21.50
2023-12-18T00:25:39.671Z,24.50
2023-12-18T00:28:46.520Z,23.77
2023-12-18T00:31:53.232Z,26.07
2023-12-18T00:35:01.420Z,24.90
2023-12-18T00:38:07.996Z,31.93
2023-12-18T00:41:14.934Z,38.33
2023-12-18T00:44:21.768Z,27.70
2023-12-18T00:47:28.080Z,36.00
2023-12-18T00:50:35.989Z,28.63
2023-12-18T00:53:42.734Z,27.20
2023-12-18T00:56:49.497Z,22.80
2023-12-18T00:59:55.938Z,34.13
2023-12-18T01:03:02.256Z,29.73
2023-12-18T01:06:10.429Z,28.93
2023-12-18T01:09:16.772Z,25.40
2023-12-18T01:12:23.207Z,26.10
2023-12-18T01:15:30.030Z,24.57
2023-12-18T01:18:36.869Z,31.67
2023-12-18T01:21:45.310Z,21.50
2023-12-18T01:24:52.000Z,24.33
2023-12-18T01:27:58.466Z,23.77
2023-12-18T01:31:05.370Z,22.50
2023-12-18T01:34:12.383Z,18.87
2023-12-18T01:37:20.829Z,24.00
2023-12-18T01:40:27.756Z,30.93
2023-12-18T01:43:34.443Z,29.57
2023-12-18T01:46:41.787Z,25.77
2023-12-18T01:49:50.448Z,35.50
2023-12-18T01:52:58.716Z,22.77
2023-12-18T01:56:07.015Z,32.30
2023-12-18T01:59:16.212Z,28.90
2023-12-18T02:02:23.364Z,41.63
2023-12-18T02:05:29.788Z,31.40
2023-12-18T02:08:38.220Z,32.77
2023-12-18T02:11:46.551Z,30.60
2023-12-18T02:14:54.252Z,26.13
2023-12-18T02:18:00.713Z,31.20
2023-12-18T02:21:07.439Z,62.50
2023-12-18T02:24:15.488Z,47.77
2023-12-18T02:27:22.759Z,42.07
2023-12-18T02:30:29.414Z,32.10
2023-12-18T02:33:36.258Z,31.00
2023-12-18T02:36:43.286Z,27.33
2023-12-18T02:39:51.360Z,33.10
2023-12-18T02:42:58.453Z,38.20
2023-12-18T02:46:05.654Z,28.60
2023-12-18T02:49:12.574Z,38.63
2023-12-18T02:52:19.333Z,31.83
2023-12-18T02:55:27.195Z,24.37
2023-12-18T02:58:33.616Z,39.13
2023-12-18T03:01:40.382Z,33.87
2023-12-18T03:04:47.366Z,31.37
2023-12-18T03:07:54.240Z,26.83
2023-12-18T03:11:02.196Z,32.77
2023-12-18T03:14:08.718Z,31.13
2023-12-18T03:17:15.579Z,33.43
2023-12-18T03:20:22.983Z,29.83
2023-12-18T03:23:30.145Z,31.63
2023-12-18T03:26:38.553Z,41.67
2023-12-18T03:29:45.047Z,39.00
2023-12-18T03:32:51.705Z,33.97
2023-12-18T03:35:58.416Z,34.77
2023-12-18T03:39:05.631Z,67.37
2023-12-18T03:42:14.203Z,39.80
2023-12-18T03:45:21.102Z,35.53
2023-12-18T03:48:28.690Z,30.77
2023-12-18T03:51:35.388Z,27.13
2023-12-18T03:54:42.197Z,35.87
2023-12-18T03:57:50.296Z,29.07
2023-12-18T04:00:57.099Z,31.00
2023-12-18T04:04:04.808Z,38.10
2023-12-18T04:07:11.285Z,40.73
2023-12-18T04:10:17.800Z,31.27
2023-12-18T04:13:25.974Z,33.23
2023-12-18T04:16:33.161Z,48.53
2023-12-18T04:19:39.881Z,51.40
2023-12-18T04:22:46.316Z,56.43
2023-12-18T04:25:52.767Z,62.97
2023-12-18T04:29:00.918Z,61.33
2023-12-18T04:32:07.704Z,47.80
2023-12-18T04:35:14.392Z,50.77
2023-12-18T04:38:21.161Z,32.63
2023-12-18T04:41:27.617Z,27.73
2023-12-18T04:44:35.429Z,39.33
2023-12-18T04:47:42.617Z,37.13
2023-12-18T04:50:49.541Z,44.30
2023-12-18T04:53:56.161Z,33.87
2023-12-18T04:57:02.482Z,24.63
2023-12-18T05:00:11.479Z,24.10
2023-12-18T05:03:18.764Z,29.17
2023-12-18T05:06:28.241Z,34.43
2023-12-18T05:09:34.864Z,30.50
2023-12-18T05:12:41.755Z,26.70
2023-12-18T05:15:52.862Z,30.77
2023-12-18T05:18:59.713Z,36.37
2023-12-18T05:22:06.178Z,47.90
2023-12-18T05:25:13.777Z,37.57
2023-12-18T05:28:21.243Z,39.17
2023-12-18T05:31:29.616Z,50.83
2023-12-18T05:34:36.409Z,53.03
2023-12-18T05:37:43.590Z,67.73
2023-12-18T05:40:50.376Z,66.00
2023-12-18T05:43:56.940Z,63.67
2023-12-18T05:47:05.025Z,66.80
2023-12-18T05:50:11.776Z,58.53
2023-12-18T05:53:18.573Z,80.43
2023-12-18T05:56:25.285Z,79.40
2023-12-18T05:59:32.193Z,63.30
2023-12-18T06:02:40.921Z,66.60
2023-12-18T06:05:48.298Z,49.33
2023-12-18T06:08:55.557Z,38.27
2023-12-18T06:12:02.262Z,43.20
2023-12-18T06:15:10.587Z,37.60
2023-12-18T06:18:19.161Z,52.80
2023-12-18T06:21:26.115Z,40.40
2023-12-18T06:24:32.957Z,33.13
2023-12-18T06:27:39.537Z,34.73
2023-12-18T06:30:46.561Z,54.23
2023-12-18T06:33:55.117Z,45.13
2023-12-18T06:37:01.838Z,62.20
2023-12-18T06:40:09.813Z,157.63
2023-12-18T06:43:16.427Z,174.67
2023-12-18T06:46:23.453Z,150.30
2023-12-18T06:49:31.767Z,79.90
2023-12-18T06:52:39.491Z,137.97
2023-12-18T06:55:46.319Z,149.23
2023-12-18T06:58:53.016Z,130.77
2023-12-18T07:01:59.899Z,96.43
2023-12-18T07:05:08.520Z,53.07
2023-12-18T07:08:15.094Z,48.00
2023-12-18T07:11:21.985Z,62.60
2023-12-18T07:14:28.499Z,48.10
2023-12-18T07:17:35.345Z,49.40
2023-12-18T07:20:44.972Z,49.00
2023-12-18T07:23:51.899Z,40.23
2023-12-18T07:26:58.632Z,43.83
2023-12-18T07:30:06.038Z,38.90
2023-12-18T07:33:12.872Z,78.83
2023-12-18T07:36:20.975Z,43.77
2023-12-18T07:39:28.076Z,48.27
2023-12-18T07:42:34.719Z,55.43
2023-12-18T07:45:41.428Z,61.30
2023-12-18T07:48:50.068Z,49.33
2023-12-18T07:51:58.633Z,70.10
2023-12-18T07:55:05.968Z,70.30
2023-12-18T07:58:12.863Z,53.50
2023-12-18T08:01:21.346Z,52.93
2023-12-18T08:04:28.560Z,45.17
2023-12-18T08:07:36.704Z,60.43
2023-12-18T08:10:44.291Z,74.07
2023-12-18T08:13:50.921Z,62.77
2023-12-18T08:16:57.461Z,60.60
2023-12-18T08:20:04.019Z,43.87
2023-12-18T08:23:12.341Z,51.57
2023-12-18T08:26:19.317Z,45.93
2023-12-18T08:29:26.849Z,29.80
2023-12-18T08:32:33.403Z,33.00
2023-12-18T08:35:40.301Z,42.93
2023-12-18T08:38:48.545Z,41.27
2023-12-18T08:41:55.229Z,35.23
2023-12-18T08:45:01.764Z,34.97
2023-12-18T08:48:09.743Z,29.17
2023-12-18T08:51:18.070Z,40.23
2023-12-18T08:54:26.250Z,36.10
2023-12-18T08:57:32.874Z,34.60
2023-12-18T09:00:39.779Z,40.63
2023-12-18T09:03:46.730Z,38.17
2023-12-18T09:06:53.218Z,28.10
2023-12-18T09:10:01.020Z,41.23
2023-12-18T09:13:07.527Z,42.23
2023-12-18T09:16:14.284Z,40.70
2023-12-18T09:19:20.589Z,36.57
2023-12-18T09:22:27.302Z,36.20
2023-12-18T09:25:35.224Z,31.27
2023-12-18T09:28:41.910Z,36.60
2023-12-18T09:31:49.047Z,61.80
2023-12-18T09:34:55.710Z,70.60
2023-12-18T09:38:02.732Z,85.70
2023-12-18T09:41:10.889Z,68.10
2023-12-18T09:44:17.903Z,86.63
2023-12-18T09:47:24.779Z,89.87
2023-12-18T09:50:31.639Z,70.37
2023-12-18T09:53:38.185Z,55.47
2023-12-18T09:56:49.600Z,46.23
2023-12-18T09:59:56.228Z,45.10
2023-12-18T10:03:03.369Z,46.93
2023-12-18T10:06:10.993Z,44.13
2023-12-18T10:09:18.436Z,50.63
2023-12-18T10:12:26.836Z,51.63
2023-12-18T10:15:35.037Z,39.67
2023-12-18T10:18:42.265Z,35.20
2023-12-18T10:21:50.652Z,37.47
2023-12-18T10:25:00.140Z,35.73
2023-12-18T10:28:08.784Z,36.73
2023-12-18T10:31:15.422Z,34.43
2023-12-18T10:34:23.796Z,32.53
2023-12-18T10:37:33.174Z,40.87
2023-12-18T10:40:40.575Z,26.43
2023-12-18T10:43:50.540Z,44.53
2023-12-18T10:46:59.617Z,42.10
2023-12-18T10:50:07.667Z,49.63
2023-12-18T10:53:18.548Z,61.70
2023-12-18T10:56:26.385Z,57.00
2023-12-18T10:59:36.669Z,65.93
2023-12-18T11:02:45.382Z,71.93
2023-12-18T11:05:53.729Z,75.03
2023-12-18T11:09:00.545Z,40.47
2023-12-18T11:12:08.360Z,58.93
2023-12-18T11:15:30.751Z,142.00
2023-12-18T11:18:52.025Z,81.07
2023-12-18T11:21:58.534Z,65.03
2023-12-18T11:25:06.746Z,41.70
2023-12-18T11:28:13.353Z,47.20
2023-12-18T11:31:22.367Z,39.10
2023-12-18T11:34:29.354Z,48.80
2023-12-18T11:37:43.997Z,44.67
2023-12-18T11:40:51.653Z,20.77
2023-12-18T11:43:58.832Z,31.47
2023-12-18T11:47:08.965Z,27.23
2023-12-18T11:50:16.042Z,14.03
2023-12-18T11:53:35.191Z,47.73
2023-12-18T11:56:43.986Z,47.13
2023-12-18T11:59:50.738Z,59.87
2023-12-18T12:03:00.284Z,29.53
2023-12-18T12:06:08.929Z,30.60
2023-12-18T12:09:15.855Z,26.13
2023-12-18T12:12:22.760Z,23.47
2023-12-18T12:15:29.818Z,32.07
2023-12-18T12:18:47.125Z,25.10
2023-12-18T12:21:53.622Z,27.83
2023-12-18T12:25:00.870Z,39.93
2023-12-18T12:28:07.549Z,29.40
2023-12-18T12:31:14.091Z,36.03
2023-12-18T12:34:22.332Z,46.70
2023-12-18T12:37:29.193Z,46.90
2023-12-18T12:40:40.238Z,43.23
2023-12-18T12:43:47.036Z,34.70
2023-12-18T12:46:53.900Z,48.47
2023-12-18T12:50:06.391Z,33.30
2023-12-18T12:53:13.212Z,39.13
2023-12-18T12:56:20.118Z,53.10
2023-12-18T12:59:27.000Z,35.13
2023-12-18T13:02:34.111Z,31.37
2023-12-18T13:05:43.414Z,43.53
2023-12-18T13:08:50.803Z,54.47
2023-12-18T13:11:57.391Z,32.47
2023-12-18T13:15:05.398Z,42.40
2023-12-18T13:18:12.619Z,48.37
2023-12-18T13:21:21.306Z,46.80
2023-12-18T13:24:28.322Z,35.83
2023-12-18T13:27:35.376Z,27.50
2023-12-18T13:30:41.905Z,81.53
2023-12-18T13:33:48.928Z,57.63
2023-12-18T13:36:57.506Z,41.97
2023-12-18T13:40:04.879Z,50.77
2023-12-18T13:43:11.471Z,104.93
2023-12-18T13:46:18.697Z,141.80
2023-12-18T13:49:25.824Z,169.40
2023-12-18T13:52:33.943Z,231.07
2023-12-18T13:55:40.435Z,215.53
2023-12-18T13:58:47.333Z,189.87
2023-12-18T14:01:54.031Z,205.50
2023-12-18T14:05:02.667Z,200.17
2023-12-18T14:08:10.931Z,166.03
2023-12-18T14:11:17.869Z,165.57
2023-12-18T14:14:24.280Z,156.93
2023-12-18T14:17:30.770Z,231.23
2023-12-18T14:20:37.610Z,229.77
2023-12-18T14:23:45.665Z,202.43
2023-12-18T14:26:52.262Z,239.87
2023-12-18T14:29:58.728Z,230.30
2023-12-18T14:33:05.881Z,182.97
2023-12-18T14:36:12.899Z,134.97
2023-12-18T14:39:21.100Z,126.20
2023-12-18T14:42:27.515Z,131.33
2023-12-18T14:45:34.073Z,123.23
2023-12-18T14:48:40.917Z,169.67
2023-12-18T14:51:47.602Z,160.00
2023-12-18T14:54:56.128Z,234.87
2023-12-18T14:58:04.802Z,259.30
2023-12-18T15:01:11.404Z,55.67
2023-12-18T15:04:26.353Z,168.87
2023-12-18T15:07:35.858Z,121.50
2023-12-18T15:10:43.962Z,89.87
2023-12-18T15:13:51.162Z,167.90
2023-12-18T15:17:02.014Z,139.70
2023-12-18T15:20:11.409Z,194.77
2023-12-18T15:23:18.368Z,164.33
2023-12-18T15:26:26.742Z,174.00
2023-12-18T15:29:33.308Z,206.17
2023-12-18T15:32:42.951Z,591.07
2023-12-18T15:35:50.105Z,280.63
2023-12-18T15:38:57.934Z,101.63
2023-12-18T15:42:06.286Z,100.67
2023-12-18T15:45:13.602Z,72.13
2023-12-18T15:48:20.657Z,97.03
2023-12-18T15:51:27.768Z,107.53
2023-12-18T15:54:34.466Z,119.47
2023-12-18T15:57:42.664Z,145.77
2023-12-18T16:00:49.575Z,233.30
2023-12-18T16:03:57.527Z,214.70
2023-12-18T16:07:06.005Z,212.63
2023-12-18T16:10:12.813Z,128.23
2023-12-18T16:13:20.784Z,149.57
2023-12-18T16:16:27.226Z,130.97
2023-12-18T16:19:34.874Z,115.90
2023-12-18T16:22:41.910Z,93.67
2023-12-18T16:25:48.882Z,94.47
2023-12-18T16:28:57.220Z,65.37
2023-12-18T16:32:08.073Z,110.53
2023-12-18T16:35:14.805Z,166.57
2023-12-18T16:38:21.833Z,125.33
2023-12-18T16:41:32.486Z,110.93
2023-12-18T16:44:40.839Z,118.10
2023-12-18T16:47:47.713Z,146.93
2023-12-18T16:50:55.744Z,167.17
2023-12-18T16:54:02.304Z,166.37
2023-12-18T16:57:08.516Z,566.73
2023-12-18T17:00:17.197Z,386.93
2023-12-18T17:03:24.084Z,199.47
2023-12-18T17:06:30.847Z,175.87
2023-12-18T17:09:37.266Z,122.20
2023-12-18T17:12:44.709Z,127.77
2023-12-18T17:15:52.890Z,137.97
2023-12-18T17:18:59.595Z,103.47
2023-12-18T17:22:06.732Z,70.83
2023-12-18T17:25:12.925Z,67.53
2023-12-18T17:28:19.711Z,110.20
2023-12-18T17:31:31.528Z,84.60
2023-12-18T17:34:39.260Z,82.97
2023-12-18T17:37:46.046Z,108.03
2023-12-18T17:40:53.031Z,115.87
2023-12-18T17:44:00.016Z,100.50
2023-12-18T17:47:08.094Z,147.90
2023-12-18T17:50:14.808Z,143.87
2023-12-18T17:53:23.026Z,208.33
2023-12-18T17:56:29.589Z,180.80
2023-12-18T17:59:36.019Z,216.43
2023-12-18T18:02:44.148Z,208.47
2023-12-18T18:05:51.088Z,354.50
2023-12-18T18:08:58.107Z,330.67
2023-12-18T18:12:05.606Z,228.87
2023-12-18T18:15:12.258Z,242.27
2023-12-18T18:18:21.327Z,335.33
2023-12-18T18:21:28.368Z,153.00
2023-12-18T18:24:34.915Z,118.43
2023-12-18T18:27:41.969Z,115.97
2023-12-18T18:30:50.460Z,173.13
2023-12-18T18:34:01.397Z,303.87
2023-12-18T18:37:07.993Z,268.87
2023-12-18T18:40:15.162Z,285.93
2023-12-18T18:43:21.967Z,569.43
2023-12-18T18:46:29.316Z,205.57
2023-12-18T18:49:37.126Z,204.30
2023-12-18T18:52:43.952Z,181.20
2023-12-18T18:55:50.653Z,111.60
2023-12-18T18:58:57.596Z,377.83
2023-12-18T19:02:04.257Z,325.93
2023-12-18T19:05:12.752Z,160.77
2023-12-18T19:08:22.011Z,197.13
2023-12-18T19:11:28.498Z,174.73
2023-12-18T19:14:34.673Z,164.47
2023-12-18T19:17:43.663Z,164.33
2023-12-18T19:20:54.163Z,181.80
2023-12-18T19:24:00.495Z,326.67
2023-12-18T19:27:07.074Z,326.63
2023-12-18T19:30:14.919Z,103.03
2023-12-18T19:33:21.954Z,90.07
2023-12-18T19:36:30.539Z,61.20
2023-12-18T19:39:37.110Z,99.97
2023-12-18T19:42:44.010Z,80.27
2023-12-18T19:45:50.656Z,118.77
2023-12-18T19:48:56.984Z,230.70
2023-12-18T19:52:06.054Z,210.77
2023-12-18T19:55:12.912Z,211.23
2023-12-18T19:58:19.822Z,171.03
2023-12-18T20:01:26.202Z,84.33
2023-12-18T20:04:33.029Z,63.00
2023-12-18T20:07:41.573Z,136.73
2023-12-18T20:10:48.766Z,113.30
2023-12-18T20:13:55.431Z,117.77
2023-12-18T20:17:02.212Z,119.80
2023-12-18T20:20:09.814Z,115.27
2023-12-18T20:23:18.051Z,109.03
2023-12-18T20:26:24.477Z,119.63
2023-12-18T20:29:33.869Z,169.80
2023-12-18T20:32:42.329Z,173.63
2023-12-18T20:35:48.957Z,182.93
2023-12-18T20:38:56.935Z,175.70
2023-12-18T20:42:03.441Z,133.83
2023-12-18T20:45:10.285Z,183.83
2023-12-18T20:51:26.486Z,145.50
2023-12-18T20:54:34.483Z,212.03
2023-12-18T20:57:41.797Z,175.40
2023-12-18T21:00:48.699Z,147.63
2023-12-18T21:03:55.785Z,153.30
2023-12-18T21:07:02.464Z,151.27
2023-12-18T21:10:13.336Z,119.17
2023-12-18T21:13:20.204Z,286.33
2023-12-18T21:16:26.967Z,284.23
2023-12-18T21:19:33.364Z,303.30
2023-12-18T21:22:40.334Z,202.03
2023-12-18T21:25:48.818Z,184.90
2023-12-18T21:28:55.392Z,176.10
2023-12-18T21:32:01.767Z,194.60
2023-12-18T21:35:10.437Z,185.57
2023-12-18T21:38:16.967Z,142.27
2023-12-18T21:41:25.277Z,216.73
2023-12-18T21:44:32.308Z,131.40
2023-12-18T21:47:40.755Z,94.23
2023-12-18T21:50:47.604Z,97.07
2023-12-18T21:53:54.094Z,74.63
2023-12-18T21:57:01.756Z,86.70
2023-12-18T22:00:09.761Z,112.07
2023-12-18T22:03:18.577Z,121.23
2023-12-18T22:06:25.125Z,102.83
2023-12-18T22:09:31.767Z,106.37
2023-12-18T22:12:39.900Z,150.97
2023-12-18T22:15:46.620Z,97.10
2023-12-18T22:18:53.336Z,83.60
2023-12-18T22:22:01.054Z,96.43
2023-12-18T22:25:08.841Z,105.20
2023-12-18T22:28:17.344Z,84.70
2023-12-18T22:31:23.930Z,75.17
2023-12-18T22:34:32.190Z,136.40
2023-12-18T22:37:38.873Z,60.47
2023-12-18T22:40:45.281Z,66.23
2023-12-18T22:43:53.581Z,59.27
2023-12-18T22:46:59.833Z,70.70
2023-12-18T22:50:07.514Z,63.37
2023-12-18T22:53:17.548Z,71.80
2023-12-18T22:56:26.417Z,61.47
2023-12-18T22:59:34.453Z,61.57
2023-12-18T23:02:40.960Z,47.63
2023-12-18T23:05:47.896Z,41.27
2023-12-18T23:08:54.212Z,37.87
2023-12-18T23:12:00.864Z,57.37
2023-12-18T23:15:11.035Z,71.83
2023-12-18T23:18:18.155Z,61.27
2023-12-18T23:21:24.540Z,77.13
2023-12-18T23:24:30.986Z,68.73
2023-12-18T23:27:37.241Z,96.53
2023-12-18T23:30:45.548Z,90.80
2023-12-18T23:33:52.647Z,79.93
2023-12-18T23:36:59.238Z,87.20
2023-12-18T23:40:06.558Z,92.10
2023-12-18T23:43:14.655Z,74.10
2023-12-18T23:46:22.960Z,69.37
2023-12-18T23:49:29.499Z,70.93
2023-12-18T23:52:36.147Z,75.30
2023-12-18T23:55:43.357Z,75.07
2023-12-18T23:58:50.036Z,55.03
